sensor_id;sensor_type;location;lat;lon;timestamp;temperature;humidity
4604;DHT22;2314;48.272;11.562;2022-11-20T00:02:23;5.20;99.90
4604;DHT22;2314;48.272;11.562;2022-11-20T00:04:52;5.30;99.90
4604;DHT22;2314;48.272;11.562;2022-11-20T00:07:19;5.30;99.90
4604;DHT22;2314;48.272;11.562;2022-11-20T00:09:46;5.30;99.90
4604;DHT22;2314;48.272;11.562;2022-11-20T00:12:13;5.30;99.90
4604;DHT22;2314;48.272;11.562;2022-11-20T00:14:40;5.30;99.90
4604;DHT22;2314;48.272;11.562;2022-11-20T00:17:07;5.30;99.90
4604;DHT22;2314;48.272;11.562;2022-11-20T00:19:34;5.30;99.90
4604;DHT22;2314;48.272;11.562;2022-11-20T00:23:59;5.30;99.90
4604;DHT22;2314;48.272;11.562;2022-11-20T00:26:27;5.30;99.90
4604;DHT22;2314;48.272;11.562;2022-11-20T00:28:57;5.30;99.90
4604;DHT22;2314;48.272;11.562;2022-11-20T00:31:25;5.20;99.90
4604;DHT22;2314;48.272;11.562;2022-11-20T00:33:53;5.30;99.90
4604;DHT22;2314;48.272;11.562;2022-11-20T00:36:21;5.30;99.90
4604;DHT22;2314;48.272;11.562;2022-11-20T00:38:51;5.20;99.90
4604;DHT22;2314;48.272;11.562;2022-11-20T00:41:21;5.20;99.90
4604;DHT22;2314;48.272;11.562;2022-11-20T00:43:48;5.20;99.90
4604;DHT22;2314;48.272;11.562;2022-11-20T00:46:18;5.20;99.90
4604;DHT22;2314;48.272;11.562;2022-11-20T00:48:46;5.20;99.90
4604;DHT22;2314;48.272;11.562;2022-11-20T00:51:15;5.20;99.90
4604;DHT22;2314;48.272;11.562;2022-11-20T00:53:43;5.20;99.90
4604;DHT22;2314;48.272;11.562;2022-11-20T00:56:12;5.20;99.90
4604;DHT22;2314;48.272;11.562;2022-11-20T00:58:43;5.10;99.90
4604;DHT22;2314;48.272;11.562;2022-11-20T01:01:12;5.10;99.90
4604;DHT22;2314;48.272;11.562;2022-11-20T01:03:42;5.10;99.90
4604;DHT22;2314;48.272;11.562;2022-11-20T01:06:12;5.10;99.90
4604;DHT22;2314;48.272;11.562;2022-11-20T01:08:40;5.10;99.90
4604;DHT22;2314;48.272;11.562;2022-11-20T01:11:10;5.10;99.90
4604;DHT22;2314;48.272;11.562;2022-11-20T01:13:40;5.10;99.90
4604;DHT22;2314;48.272;11.562;2022-11-20T01:16:10;5.10;99.90
4604;DHT22;2314;48.272;11.562;2022-11-20T01:18:39;5.10;99.90
4604;DHT22;2314;48.272;11.562;2022-11-20T01:21:09;5.10;99.90
4604;DHT22;2314;48.272;11.562;2022-11-20T01:23:41;5.10;99.90
4604;DHT22;2314;48.272;11.562;2022-11-20T02:12:25;5.00;99.90
4604;DHT22;2314;48.272;11.562;2022-11-20T03:14:57;5.10;99.90
4604;DHT22;2314;48.272;11.562;2022-11-20T03:54:40;5.00;99.90
4604;DHT22;2314;48.272;11.562;2022-11-20T03:57:07;5.00;99.90
4604;DHT22;2314;48.272;11.562;2022-11-20T03:59:34;5.00;99.90
4604;DHT22;2314;48.272;11.562;2022-11-20T04:02:01;5.00;99.90
4604;DHT22;2314;48.272;11.562;2022-11-20T04:04:28;5.00;99.90
4604;DHT22;2314;48.272;11.562;2022-11-20T04:06:55;5.00;99.90
4604;DHT22;2314;48.272;11.562;2022-11-20T04:09:22;5.00;99.90
4604;DHT22;2314;48.272;11.562;2022-11-20T04:11:50;5.00;99.90
4604;DHT22;2314;48.272;11.562;2022-11-20T04:14:17;5.00;99.90
4604;DHT22;2314;48.272;11.562;2022-11-20T04:16:44;5.00;99.90
4604;DHT22;2314;48.272;11.562;2022-11-20T04:19:14;5.00;99.90
4604;DHT22;2314;48.272;11.562;2022-11-20T04:21:42;5.00;99.90
4604;DHT22;2314;48.272;11.562;2022-11-20T04:24:10;5.00;99.90
4604;DHT22;2314;48.272;11.562;2022-11-20T04:26:37;5.00;99.90
4604;DHT22;2314;48.272;11.562;2022-11-20T04:29:06;5.00;99.90
4604;DHT22;2314;48.272;11.562;2022-11-20T04:31:34;5.00;99.90
4604;DHT22;2314;48.272;11.562;2022-11-20T04:34:02;5.00;99.90
4604;DHT22;2314;48.272;11.562;2022-11-20T04:36:31;5.00;99.90
4604;DHT22;2314;48.272;11.562;2022-11-20T04:39:00;5.00;99.90
4604;DHT22;2314;48.272;11.562;2022-11-20T04:41:29;5.00;99.90
4604;DHT22;2314;48.272;11.562;2022-11-20T04:43:59;5.00;99.90
4604;DHT22;2314;48.272;11.562;2022-11-20T04:46:31;5.00;99.90
4604;DHT22;2314;48.272;11.562;2022-11-20T04:48:59;5.00;99.90
4604;DHT22;2314;48.272;11.562;2022-11-20T04:51:26;5.00;99.90
4604;DHT22;2314;48.272;11.562;2022-11-20T04:53:53;4.90;99.90
4604;DHT22;2314;48.272;11.562;2022-11-20T05:04:44;4.90;99.90
4604;DHT22;2314;48.272;11.562;2022-11-20T05:07:11;4.90;99.90
4604;DHT22;2314;48.272;11.562;2022-11-20T05:09:38;4.90;99.90
4604;DHT22;2314;48.272;11.562;2022-11-20T05:12:07;4.90;99.90
4604;DHT22;2314;48.272;11.562;2022-11-20T05:14:34;4.90;99.90
4604;DHT22;2314;48.272;11.562;2022-11-20T05:17:01;4.90;99.90
4604;DHT22;2314;48.272;11.562;2022-11-20T05:19:28;4.90;99.90
4604;DHT22;2314;48.272;11.562;2022-11-20T05:21:56;4.90;99.90
4604;DHT22;2314;48.272;11.562;2022-11-20T05:24:23;4.90;99.90
4604;DHT22;2314;48.272;11.562;2022-11-20T05:26:50;4.90;99.90
4604;DHT22;2314;48.272;11.562;2022-11-20T05:29:17;4.90;99.90
4604;DHT22;2314;48.272;11.562;2022-11-20T05:31:44;4.90;99.90
4604;DHT22;2314;48.272;11.562;2022-11-20T05:43:25;4.90;99.90
4604;DHT22;2314;48.272;11.562;2022-11-20T06:24:10;4.40;99.90
4604;DHT22;2314;48.272;11.562;2022-11-20T06:26:38;4.30;99.90
4604;DHT22;2314;48.272;11.562;2022-11-20T06:29:05;4.30;99.90
4604;DHT22;2314;48.272;11.562;2022-11-20T06:31:32;4.40;99.90
4604;DHT22;2314;48.272;11.562;2022-11-20T06:34:00;4.40;99.90
4604;DHT22;2314;48.272;11.562;2022-11-20T06:36:27;4.50;99.90
4604;DHT22;2314;48.272;11.562;2022-11-20T06:38:54;4.60;99.90
4604;DHT22;2314;48.272;11.562;2022-11-20T06:41:22;4.60;99.90
4604;DHT22;2314;48.272;11.562;2022-11-20T06:43:50;4.70;99.90
4604;DHT22;2314;48.272;11.562;2022-11-20T06:48:56;4.80;99.90
4604;DHT22;2314;48.272;11.562;2022-11-20T06:51:23;4.80;99.90
4604;DHT22;2314;48.272;11.562;2022-11-20T06:53:50;4.90;99.90
4604;DHT22;2314;48.272;11.562;2022-11-20T06:56:17;4.90;99.90
4604;DHT22;2314;48.272;11.562;2022-11-20T06:58:46;4.90;99.90
4604;DHT22;2314;48.272;11.562;2022-11-20T07:01:14;4.90;99.90
4604;DHT22;2314;48.272;11.562;2022-11-20T07:03:41;4.90;99.90
4604;DHT22;2314;48.272;11.562;2022-11-20T07:29:33;5.10;99.90
4604;DHT22;2314;48.272;11.562;2022-11-20T07:32:00;5.20;99.90
4604;DHT22;2314;48.272;11.562;2022-11-20T07:34:27;5.20;99.90
4604;DHT22;2314;48.272;11.562;2022-11-20T07:36:54;5.20;99.90
4604;DHT22;2314;48.272;11.562;2022-11-20T07:39:21;5.20;99.90
4604;DHT22;2314;48.272;11.562;2022-11-20T07:53:13;5.40;99.90
4604;DHT22;2314;48.272;11.562;2022-11-20T07:55:46;5.50;99.90
4604;DHT22;2314;48.272;11.562;2022-11-20T07:58:13;5.50;99.90
4604;DHT22;2314;48.272;11.562;2022-11-20T08:00:40;5.50;99.90
4604;DHT22;2314;48.272;11.562;2022-11-20T08:03:07;5.60;99.90
4604;DHT22;2314;48.272;11.562;2022-11-20T08:05:34;5.70;99.90
4604;DHT22;2314;48.272;11.562;2022-11-20T08:08:02;5.70;99.90
4604;DHT22;2314;48.272;11.562;2022-11-20T08:10:31;5.80;99.90
4604;DHT22;2314;48.272;11.562;2022-11-20T08:12:58;5.80;99.90
4604;DHT22;2314;48.272;11.562;2022-11-20T08:15:48;5.80;99.90
4604;DHT22;2314;48.272;11.562;2022-11-20T08:25:24;5.80;99.90
4604;DHT22;2314;48.272;11.562;2022-11-20T08:27:51;5.80;99.90
4604;DHT22;2314;48.272;11.562;2022-11-20T08:30:18;5.80;99.90
4604;DHT22;2314;48.272;11.562;2022-11-20T08:32:45;5.90;99.90
4604;DHT22;2314;48.272;11.562;2022-11-20T08:35:12;5.90;99.90
4604;DHT22;2314;48.272;11.562;2022-11-20T08:37:39;5.90;99.90
4604;DHT22;2314;48.272;11.562;2022-11-20T08:40:09;6.00;99.90
4604;DHT22;2314;48.272;11.562;2022-11-20T08:42:46;5.90;99.90
4604;DHT22;2314;48.272;11.562;2022-11-20T08:45:14;6.00;99.90
4604;DHT22;2314;48.272;11.562;2022-11-20T08:47:41;6.00;99.90
4604;DHT22;2314;48.272;11.562;2022-11-20T08:50:09;6.00;99.90
4604;DHT22;2314;48.272;11.562;2022-11-20T08:52:36;6.00;99.90
4604;DHT22;2314;48.272;11.562;2022-11-20T08:55:05;6.10;99.90
4604;DHT22;2314;48.272;11.562;2022-11-20T08:57:33;6.10;99.90
4604;DHT22;2314;48.272;11.562;2022-11-20T09:00:03;6.20;99.90
4604;DHT22;2314;48.272;11.562;2022-11-20T09:02:32;6.20;99.90
4604;DHT22;2314;48.272;11.562;2022-11-20T09:04:59;6.20;99.90
4604;DHT22;2314;48.272;11.562;2022-11-20T09:07:28;6.20;99.90
4604;DHT22;2314;48.272;11.562;2022-11-20T09:09:55;6.30;99.90
4604;DHT22;2314;48.272;11.562;2022-11-20T09:12:22;6.20;99.90
4604;DHT22;2314;48.272;11.562;2022-11-20T09:14:49;6.20;99.90
4604;DHT22;2314;48.272;11.562;2022-11-20T09:17:18;6.30;99.90
4604;DHT22;2314;48.272;11.562;2022-11-20T09:19:46;6.40;99.90
4604;DHT22;2314;48.272;11.562;2022-11-20T09:22:13;6.50;99.90
4604;DHT22;2314;48.272;11.562;2022-11-20T09:24:40;6.60;99.90
4604;DHT22;2314;48.272;11.562;2022-11-20T09:27:08;6.90;99.90
4604;DHT22;2314;48.272;11.562;2022-11-20T09:29:35;7.10;99.90
4604;DHT22;2314;48.272;11.562;2022-11-20T09:32:02;7.30;99.90
4604;DHT22;2314;48.272;11.562;2022-11-20T09:34:31;7.30;99.90
4604;DHT22;2314;48.272;11.562;2022-11-20T09:36:58;7.30;99.90
4604;DHT22;2314;48.272;11.562;2022-11-20T09:39:25;7.30;99.90
4604;DHT22;2314;48.272;11.562;2022-11-20T09:42:32;7.20;99.90
4604;DHT22;2314;48.272;11.562;2022-11-20T09:45:21;7.20;99.90
4604;DHT22;2314;48.272;11.562;2022-11-20T09:48:01;7.10;99.90
4604;DHT22;2314;48.272;11.562;2022-11-20T09:50:40;7.20;99.90
4604;DHT22;2314;48.272;11.562;2022-11-20T09:53:13;7.10;99.90
4604;DHT22;2314;48.272;11.562;2022-11-20T09:55:49;7.10;99.90
4604;DHT22;2314;48.272;11.562;2022-11-20T09:58:24;7.00;99.90
4604;DHT22;2314;48.272;11.562;2022-11-20T10:00:57;7.10;99.90
4604;DHT22;2314;48.272;11.562;2022-11-20T10:03:36;7.20;99.90
4604;DHT22;2314;48.272;11.562;2022-11-20T10:06:13;7.30;99.90
4604;DHT22;2314;48.272;11.562;2022-11-20T10:08:45;7.40;99.90
4604;DHT22;2314;48.272;11.562;2022-11-20T10:11:21;7.40;99.90
4604;DHT22;2314;48.272;11.562;2022-11-20T10:13:59;7.50;99.90
4604;DHT22;2314;48.272;11.562;2022-11-20T10:16:41;7.60;99.90
4604;DHT22;2314;48.272;11.562;2022-11-20T10:19:29;7.60;99.90
4604;DHT22;2314;48.272;11.562;2022-11-20T10:22:11;7.60;99.90
4604;DHT22;2314;48.272;11.562;2022-11-20T10:24:55;7.60;99.90
4604;DHT22;2314;48.272;11.562;2022-11-20T10:27:37;7.60;99.90
4604;DHT22;2314;48.272;11.562;2022-11-20T10:30:12;7.60;99.90
4604;DHT22;2314;48.272;11.562;2022-11-20T10:32:43;7.70;99.90
4604;DHT22;2314;48.272;11.562;2022-11-20T10:35:20;7.80;99.90
4604;DHT22;2314;48.272;11.562;2022-11-20T10:37:53;7.80;99.90
4604;DHT22;2314;48.272;11.562;2022-11-20T10:40:29;7.90;99.90
4604;DHT22;2314;48.272;11.562;2022-11-20T10:43:01;8.10;99.90
4604;DHT22;2314;48.272;11.562;2022-11-20T10:45:39;8.30;99.90
4604;DHT22;2314;48.272;11.562;2022-11-20T10:48:15;8.20;99.90
4604;DHT22;2314;48.272;11.562;2022-11-20T10:51:08;8.20;99.90
4604;DHT22;2314;48.272;11.562;2022-11-20T10:53:54;8.20;99.90
4604;DHT22;2314;48.272;11.562;2022-11-20T10:56:31;8.10;99.90
4604;DHT22;2314;48.272;11.562;2022-11-20T10:59:16;8.10;99.90
4604;DHT22;2314;48.272;11.562;2022-11-20T11:01:54;8.00;99.90
4604;DHT22;2314;48.272;11.562;2022-11-20T11:04:33;8.10;99.90
4604;DHT22;2314;48.272;11.562;2022-11-20T11:07:08;7.90;99.90
4604;DHT22;2314;48.272;11.562;2022-11-20T11:09:42;8.00;99.90
4604;DHT22;2314;48.272;11.562;2022-11-20T11:12:11;8.00;99.90
4604;DHT22;2314;48.272;11.562;2022-11-20T11:14:46;7.90;99.90
4604;DHT22;2314;48.272;11.562;2022-11-20T11:17:24;8.00;99.90
4604;DHT22;2314;48.272;11.562;2022-11-20T11:20:16;8.00;99.90
4604;DHT22;2314;48.272;11.562;2022-11-20T11:22:46;7.80;99.90
4604;DHT22;2314;48.272;11.562;2022-11-20T11:25:30;7.70;99.90
4604;DHT22;2314;48.272;11.562;2022-11-20T11:28:00;7.70;99.90
4604;DHT22;2314;48.272;11.562;2022-11-20T11:30:30;7.70;99.90
4604;DHT22;2314;48.272;11.562;2022-11-20T11:33:10;7.60;99.90
4604;DHT22;2314;48.272;11.562;2022-11-20T11:35:45;7.60;99.90
4604;DHT22;2314;48.272;11.562;2022-11-20T11:38:16;7.60;99.90
4604;DHT22;2314;48.272;11.562;2022-11-20T11:40:46;7.70;99.90
4604;DHT22;2314;48.272;11.562;2022-11-20T11:43:19;7.70;99.90
4604;DHT22;2314;48.272;11.562;2022-11-20T11:48:58;7.80;99.90
4604;DHT22;2314;48.272;11.562;2022-11-20T11:51:31;8.20;99.90
4604;DHT22;2314;48.272;11.562;2022-11-20T11:54:14;8.40;99.90
4604;DHT22;2314;48.272;11.562;2022-11-20T11:56:45;8.50;99.90
4604;DHT22;2314;48.272;11.562;2022-11-20T11:59:21;8.80;99.90
4604;DHT22;2314;48.272;11.562;2022-11-20T12:01:55;8.90;99.90
4604;DHT22;2314;48.272;11.562;2022-11-20T12:04:37;8.90;99.90
4604;DHT22;2314;48.272;11.562;2022-11-20T12:07:11;8.90;99.90
4604;DHT22;2314;48.272;11.562;2022-11-20T12:09:51;8.60;99.90
4604;DHT22;2314;48.272;11.562;2022-11-20T12:12:26;8.10;99.90
4604;DHT22;2314;48.272;11.562;2022-11-20T12:14:55;7.60;99.90
4604;DHT22;2314;48.272;11.562;2022-11-20T12:17:23;7.30;99.90
4604;DHT22;2314;48.272;11.562;2022-11-20T12:19:51;7.20;99.90
4604;DHT22;2314;48.272;11.562;2022-11-20T12:22:24;7.20;99.90
4604;DHT22;2314;48.272;11.562;2022-11-20T12:24:58;7.20;99.90
4604;DHT22;2314;48.272;11.562;2022-11-20T12:27:48;7.10;99.90
4604;DHT22;2314;48.272;11.562;2022-11-20T12:30:25;7.10;99.90
4604;DHT22;2314;48.272;11.562;2022-11-20T12:33:18;7.10;99.90
4604;DHT22;2314;48.272;11.562;2022-11-20T12:36:17;7.20;99.90
4604;DHT22;2314;48.272;11.562;2022-11-20T12:38:58;7.30;99.90
4604;DHT22;2314;48.272;11.562;2022-11-20T12:41:55;7.30;99.90
4604;DHT22;2314;48.272;11.562;2022-11-20T12:45:26;7.50;99.90
4604;DHT22;2314;48.272;11.562;2022-11-20T12:48:12;7.50;99.90
4604;DHT22;2314;48.272;11.562;2022-11-20T12:51:13;7.50;99.90
4604;DHT22;2314;48.272;11.562;2022-11-20T12:53:53;7.40;99.90
4604;DHT22;2314;48.272;11.562;2022-11-20T12:56:33;7.40;99.90
4604;DHT22;2314;48.272;11.562;2022-11-20T12:59:21;7.30;99.90
4604;DHT22;2314;48.272;11.562;2022-11-20T13:01:58;7.20;99.90
4604;DHT22;2314;48.272;11.562;2022-11-20T13:04:48;7.20;99.90
4604;DHT22;2314;48.272;11.562;2022-11-20T13:07:23;7.20;99.90
4604;DHT22;2314;48.272;11.562;2022-11-20T13:09:51;7.10;99.90
4604;DHT22;2314;48.272;11.562;2022-11-20T13:12:23;7.10;99.90
4604;DHT22;2314;48.272;11.562;2022-11-20T13:14:55;7.00;99.90
4604;DHT22;2314;48.272;11.562;2022-11-20T13:17:36;6.90;99.90
4604;DHT22;2314;48.272;11.562;2022-11-20T13:20:06;6.90;99.90
4604;DHT22;2314;48.272;11.562;2022-11-20T13:22:44;6.80;99.90
4604;DHT22;2314;48.272;11.562;2022-11-20T13:25:23;6.70;99.90
4604;DHT22;2314;48.272;11.562;2022-11-20T13:27:51;6.70;99.90
4604;DHT22;2314;48.272;11.562;2022-11-20T13:30:19;6.70;99.90
4604;DHT22;2314;48.272;11.562;2022-11-20T13:32:53;6.70;99.90
4604;DHT22;2314;48.272;11.562;2022-11-20T13:35:26;6.70;99.90
4604;DHT22;2314;48.272;11.562;2022-11-20T13:38:08;6.70;99.90
4604;DHT22;2314;48.272;11.562;2022-11-20T13:40:38;6.70;99.90
4604;DHT22;2314;48.272;11.562;2022-11-20T13:43:22;6.70;99.90
4604;DHT22;2314;48.272;11.562;2022-11-20T13:46:04;6.70;99.90
4604;DHT22;2314;48.272;11.562;2022-11-20T13:48:34;6.60;99.90
4604;DHT22;2314;48.272;11.562;2022-11-20T13:51:12;6.60;99.90
4604;DHT22;2314;48.272;11.562;2022-11-20T13:54:05;6.60;99.90
4604;DHT22;2314;48.272;11.562;2022-11-20T13:56:50;6.60;99.90
4604;DHT22;2314;48.272;11.562;2022-11-20T13:59:38;6.60;99.90
4604;DHT22;2314;48.272;11.562;2022-11-20T14:02:11;6.60;99.90
4604;DHT22;2314;48.272;11.562;2022-11-20T14:04:44;6.70;99.90
4604;DHT22;2314;48.272;11.562;2022-11-20T14:07:13;6.70;99.90
4604;DHT22;2314;48.272;11.562;2022-11-20T14:09:50;6.70;99.90
4604;DHT22;2314;48.272;11.562;2022-11-20T14:12:19;6.60;99.90
4604;DHT22;2314;48.272;11.562;2022-11-20T14:14:49;6.60;99.90
4604;DHT22;2314;48.272;11.562;2022-11-20T14:17:19;6.60;99.90
4604;DHT22;2314;48.272;11.562;2022-11-20T14:19:51;6.60;99.90
4604;DHT22;2314;48.272;11.562;2022-11-20T14:22:20;6.60;99.90
4604;DHT22;2314;48.272;11.562;2022-11-20T14:24:49;6.50;99.90
4604;DHT22;2314;48.272;11.562;2022-11-20T14:27:28;6.50;99.90
4604;DHT22;2314;48.272;11.562;2022-11-20T14:29:55;6.50;99.90
4604;DHT22;2314;48.272;11.562;2022-11-20T14:32:28;6.50;99.90
4604;DHT22;2314;48.272;11.562;2022-11-20T14:35:01;6.50;99.90
4604;DHT22;2314;48.272;11.562;2022-11-20T14:37:36;6.40;99.90
4604;DHT22;2314;48.272;11.562;2022-11-20T14:40:22;6.40;99.90
4604;DHT22;2314;48.272;11.562;2022-11-20T14:42:51;6.50;99.90
4604;DHT22;2314;48.272;11.562;2022-11-20T14:45:18;6.50;99.90
4604;DHT22;2314;48.272;11.562;2022-11-20T14:47:46;6.50;99.90
4604;DHT22;2314;48.272;11.562;2022-11-20T14:50:19;6.50;99.90
4604;DHT22;2314;48.272;11.562;2022-11-20T14:52:52;6.50;99.90
4604;DHT22;2314;48.272;11.562;2022-11-20T14:55:31;6.50;99.90
4604;DHT22;2314;48.272;11.562;2022-11-20T14:58:02;6.50;99.90
4604;DHT22;2314;48.272;11.562;2022-11-20T15:00:31;6.50;99.90
4604;DHT22;2314;48.272;11.562;2022-11-20T15:02:59;6.50;99.90
4604;DHT22;2314;48.272;11.562;2022-11-20T15:05:45;6.50;99.90
4604;DHT22;2314;48.272;11.562;2022-11-20T15:08:13;6.50;99.90
4604;DHT22;2314;48.272;11.562;2022-11-20T15:10:46;6.50;99.90
4604;DHT22;2314;48.272;11.562;2022-11-20T15:13:24;6.40;99.90
4604;DHT22;2314;48.272;11.562;2022-11-20T15:15:54;6.40;99.90
4604;DHT22;2314;48.272;11.562;2022-11-20T15:18:23;6.40;99.90
4604;DHT22;2314;48.272;11.562;2022-11-20T15:20:55;6.30;99.90
4604;DHT22;2314;48.272;11.562;2022-11-20T15:23:23;6.30;99.90
4604;DHT22;2314;48.272;11.562;2022-11-20T15:25:50;6.30;99.90
4604;DHT22;2314;48.272;11.562;2022-11-20T15:28:19;6.20;99.90
4604;DHT22;2314;48.272;11.562;2022-11-20T15:30:49;6.20;99.90
4604;DHT22;2314;48.272;11.562;2022-11-20T15:33:16;6.20;99.90
4604;DHT22;2314;48.272;11.562;2022-11-20T15:35:44;6.20;99.90
4604;DHT22;2314;48.272;11.562;2022-11-20T15:38:12;6.20;99.90
4604;DHT22;2314;48.272;11.562;2022-11-20T15:40:40;6.20;99.90
4604;DHT22;2314;48.272;11.562;2022-11-20T15:43:15;6.20;99.90
4604;DHT22;2314;48.272;11.562;2022-11-20T15:45:45;6.10;99.90
4604;DHT22;2314;48.272;11.562;2022-11-20T15:48:16;6.00;99.90
4604;DHT22;2314;48.272;11.562;2022-11-20T15:50:51;5.90;99.90
4604;DHT22;2314;48.272;11.562;2022-11-20T15:53:22;5.90;99.90
4604;DHT22;2314;48.272;11.562;2022-11-20T15:55:49;5.80;99.90
4604;DHT22;2314;48.272;11.562;2022-11-20T15:58:16;5.80;99.90
4604;DHT22;2314;48.272;11.562;2022-11-20T16:00:43;5.70;99.90
4604;DHT22;2314;48.272;11.562;2022-11-20T16:03:11;5.70;99.90
4604;DHT22;2314;48.272;11.562;2022-11-20T16:05:39;5.70;99.90
4604;DHT22;2314;48.272;11.562;2022-11-20T16:08:06;5.60;99.90
4604;DHT22;2314;48.272;11.562;2022-11-20T16:10:34;5.60;99.90
4604;DHT22;2314;48.272;11.562;2022-11-20T16:13:02;5.50;99.90
4604;DHT22;2314;48.272;11.562;2022-11-20T16:15:50;5.50;99.90
4604;DHT22;2314;48.272;11.562;2022-11-20T16:18:20;5.40;99.90
4604;DHT22;2314;48.272;11.562;2022-11-20T16:20:50;5.40;99.90
4604;DHT22;2314;48.272;11.562;2022-11-20T16:23:19;5.30;99.90
4604;DHT22;2314;48.272;11.562;2022-11-20T16:25:48;5.20;99.90
4604;DHT22;2314;48.272;11.562;2022-11-20T16:28:16;5.10;99.90
4604;DHT22;2314;48.272;11.562;2022-11-20T16:30:43;5.00;99.90
4604;DHT22;2314;48.272;11.562;2022-11-20T16:33:12;4.90;99.90
4604;DHT22;2314;48.272;11.562;2022-11-20T16:35:40;4.80;99.90
4604;DHT22;2314;48.272;11.562;2022-11-20T16:38:08;4.60;99.90
4604;DHT22;2314;48.272;11.562;2022-11-20T16:40:35;4.50;99.90
4604;DHT22;2314;48.272;11.562;2022-11-20T16:43:08;4.40;99.90
4604;DHT22;2314;48.272;11.562;2022-11-20T16:45:41;4.40;99.90
4604;DHT22;2314;48.272;11.562;2022-11-20T16:48:12;4.30;99.90
4604;DHT22;2314;48.272;11.562;2022-11-20T16:50:45;4.30;99.90
4604;DHT22;2314;48.272;11.562;2022-11-20T16:53:13;4.20;99.90
4604;DHT22;2314;48.272;11.562;2022-11-20T16:55:41;4.10;99.90
4604;DHT22;2314;48.272;11.562;2022-11-20T16:58:09;4.00;99.90
4604;DHT22;2314;48.272;11.562;2022-11-20T17:00:37;4.00;99.90
4604;DHT22;2314;48.272;11.562;2022-11-20T17:03:04;3.90;99.90
4604;DHT22;2314;48.272;11.562;2022-11-20T17:05:33;3.80;99.90
4604;DHT22;2314;48.272;11.562;2022-11-20T17:08:01;3.80;99.90
4604;DHT22;2314;48.272;11.562;2022-11-20T17:10:28;3.70;99.90
4604;DHT22;2314;48.272;11.562;2022-11-20T17:12:55;3.60;99.90
4604;DHT22;2314;48.272;11.562;2022-11-20T17:15:24;3.50;99.90
4604;DHT22;2314;48.272;11.562;2022-11-20T17:17:51;3.40;99.90
4604;DHT22;2314;48.272;11.562;2022-11-20T17:20:18;3.40;99.90
4604;DHT22;2314;48.272;11.562;2022-11-20T17:22:45;3.30;99.90
4604;DHT22;2314;48.272;11.562;2022-11-20T17:25:12;3.20;99.90
4604;DHT22;2314;48.272;11.562;2022-11-20T17:27:39;3.20;99.90
4604;DHT22;2314;48.272;11.562;2022-11-20T17:30:07;3.10;99.90
4604;DHT22;2314;48.272;11.562;2022-11-20T17:32:35;3.10;99.90
4604;DHT22;2314;48.272;11.562;2022-11-20T17:35:03;3.10;99.90
4604;DHT22;2314;48.272;11.562;2022-11-20T17:37:30;3.00;99.90
4604;DHT22;2314;48.272;11.562;2022-11-20T17:39:57;3.00;99.90
4604;DHT22;2314;48.272;11.562;2022-11-20T17:42:24;3.10;99.90
4604;DHT22;2314;48.272;11.562;2022-11-20T17:45:01;3.10;99.90
4604;DHT22;2314;48.272;11.562;2022-11-20T17:47:29;3.10;99.90
4604;DHT22;2314;48.272;11.562;2022-11-20T17:50:00;3.10;99.90
4604;DHT22;2314;48.272;11.562;2022-11-20T17:52:27;3.10;99.90
4604;DHT22;2314;48.272;11.562;2022-11-20T17:54:53;3.10;99.90
4604;DHT22;2314;48.272;11.562;2022-11-20T17:57:22;3.10;99.90
4604;DHT22;2314;48.272;11.562;2022-11-20T18:00:08;3.20;99.90
4604;DHT22;2314;48.272;11.562;2022-11-20T18:02:37;3.10;99.90
4604;DHT22;2314;48.272;11.562;2022-11-20T18:05:06;3.10;99.90
4604;DHT22;2314;48.272;11.562;2022-11-20T18:07:34;3.00;99.90
4604;DHT22;2314;48.272;11.562;2022-11-20T18:10:02;3.00;99.90
4604;DHT22;2314;48.272;11.562;2022-11-20T18:12:29;3.00;99.90
4604;DHT22;2314;48.272;11.562;2022-11-20T18:14:56;3.00;99.90
4604;DHT22;2314;48.272;11.562;2022-11-20T18:17:23;2.90;99.90
4604;DHT22;2314;48.272;11.562;2022-11-20T18:19:50;2.90;99.90
4604;DHT22;2314;48.272;11.562;2022-11-20T18:22:19;3.00;99.90
4604;DHT22;2314;48.272;11.562;2022-11-20T18:24:47;3.00;99.90
4604;DHT22;2314;48.272;11.562;2022-11-20T18:27:16;3.10;99.90
4604;DHT22;2314;48.272;11.562;2022-11-20T18:29:46;3.10;99.90
4604;DHT22;2314;48.272;11.562;2022-11-20T18:32:16;3.10;99.90
4604;DHT22;2314;48.272;11.562;2022-11-20T18:34:43;3.10;99.90
4604;DHT22;2314;48.272;11.562;2022-11-20T18:37:10;3.00;99.90
4604;DHT22;2314;48.272;11.562;2022-11-20T18:39:41;3.00;99.90
4604;DHT22;2314;48.272;11.562;2022-11-20T18:42:10;2.90;99.90
4604;DHT22;2314;48.272;11.562;2022-11-20T18:44:55;2.90;99.90
4604;DHT22;2314;48.272;11.562;2022-11-20T18:47:26;2.90;99.90
4604;DHT22;2314;48.272;11.562;2022-11-20T18:49:55;2.90;99.90
4604;DHT22;2314;48.272;11.562;2022-11-20T18:52:26;2.80;99.90
4604;DHT22;2314;48.272;11.562;2022-11-20T18:54:56;2.80;99.90
4604;DHT22;2314;48.272;11.562;2022-11-20T18:57:24;2.80;99.90
4604;DHT22;2314;48.272;11.562;2022-11-20T18:59:52;2.80;99.90
4604;DHT22;2314;48.272;11.562;2022-11-20T19:02:21;2.80;99.90
4604;DHT22;2314;48.272;11.562;2022-11-20T19:04:48;2.80;99.90
4604;DHT22;2314;48.272;11.562;2022-11-20T19:07:16;2.80;99.90
4604;DHT22;2314;48.272;11.562;2022-11-20T19:09:46;2.80;99.90
4604;DHT22;2314;48.272;11.562;2022-11-20T19:12:16;2.80;99.90
4604;DHT22;2314;48.272;11.562;2022-11-20T19:14:43;2.70;99.90
4604;DHT22;2314;48.272;11.562;2022-11-20T19:17:10;2.70;99.90
4604;DHT22;2314;48.272;11.562;2022-11-20T19:19:38;2.70;99.90
4604;DHT22;2314;48.272;11.562;2022-11-20T19:22:05;2.80;99.90
4604;DHT22;2314;48.272;11.562;2022-11-20T19:24:32;2.90;99.90
4604;DHT22;2314;48.272;11.562;2022-11-20T19:26:59;2.90;99.90
4604;DHT22;2314;48.272;11.562;2022-11-20T19:29:28;2.90;99.90
4604;DHT22;2314;48.272;11.562;2022-11-20T19:31:55;2.90;99.90
4604;DHT22;2314;48.272;11.562;2022-11-20T19:34:22;2.90;99.90
4604;DHT22;2314;48.272;11.562;2022-11-20T19:36:50;3.00;99.90
4604;DHT22;2314;48.272;11.562;2022-11-20T19:39:17;3.00;99.90
4604;DHT22;2314;48.272;11.562;2022-11-20T19:41:45;3.00;99.90
4604;DHT22;2314;48.272;11.562;2022-11-20T19:44:13;3.00;99.90
4604;DHT22;2314;48.272;11.562;2022-11-20T19:46:43;3.10;99.90
4604;DHT22;2314;48.272;11.562;2022-11-20T19:49:11;3.20;99.90
4604;DHT22;2314;48.272;11.562;2022-11-20T19:51:44;3.20;99.90
4604;DHT22;2314;48.272;11.562;2022-11-20T19:54:12;3.30;99.90
4604;DHT22;2314;48.272;11.562;2022-11-20T19:56:39;3.30;99.90
4604;DHT22;2314;48.272;11.562;2022-11-20T19:59:06;3.40;99.90
4604;DHT22;2314;48.272;11.562;2022-11-20T20:01:33;3.40;99.90
4604;DHT22;2314;48.272;11.562;2022-11-20T20:04:02;3.40;99.90
4604;DHT22;2314;48.272;11.562;2022-11-20T20:06:31;3.40;99.90
4604;DHT22;2314;48.272;11.562;2022-11-20T20:09:00;3.50;99.90
4604;DHT22;2314;48.272;11.562;2022-11-20T20:11:30;3.50;99.90
4604;DHT22;2314;48.272;11.562;2022-11-20T20:14:00;3.60;99.90
4604;DHT22;2314;48.272;11.562;2022-11-20T20:16:27;3.60;99.90
4604;DHT22;2314;48.272;11.562;2022-11-20T20:18:55;3.60;99.90
4604;DHT22;2314;48.272;11.562;2022-11-20T20:21:24;3.60;99.90
4604;DHT22;2314;48.272;11.562;2022-11-20T20:23:52;3.60;99.90
4604;DHT22;2314;48.272;11.562;2022-11-20T20:26:21;3.60;99.90
4604;DHT22;2314;48.272;11.562;2022-11-20T20:28:49;3.60;99.90
4604;DHT22;2314;48.272;11.562;2022-11-20T20:31:17;3.60;99.90
4604;DHT22;2314;48.272;11.562;2022-11-20T20:33:49;3.50;99.90
4604;DHT22;2314;48.272;11.562;2022-11-20T20:36:18;3.50;99.90
4604;DHT22;2314;48.272;11.562;2022-11-20T20:38:51;3.40;99.90